Ashland, Maine
Current Conditions -  °F | °C
As of 1:55 PM on Wednesday 26 Nov 2014 (Local Time) from KPQI Reporting Station
Overcast Overcast  
Wind Chill: -2°   Ceiling: 12000
Heat Index:   Visibility: 10mi
Dew Point: -7°   Wind: 8mph
Humidity: 52%   Direction: 360°N
Pressure: 30.17"   Gusts: NA
Location:  46.63°N, 68.41°W
Report Text: KPQI 261855Z AUTO 36007KT 10SM FEW040 OVC120 02/M07 A3017 RMK AO1
Loading
Personal Weather Stations






























Interactive Weather Map New forecast layout! Learn more

10-Day Weather Forecast

Advertisements
Track Severe Weather on mobile